Impacts TAF Board INFO
FOR SITUATIONAL AWARENESS. NOT TO BE USED FOR FLIGHT PLANNING PURPOSES.
IDs:

KDEN - Denver Intl, CO, US

Issued at 0301 UTC 17 Aug 2018
Updated at 0522 UTC 17 Aug 2018
Potential Impact None Slight Moderate High
Time0453Z 17/06Z 17/07Z 17/08Z 17/09Z 17/10Z 17/11Z 17/12Z 17/13Z 17/14Z 17/15Z 17/16Z 17/17Z 17/18Z>>
Type OBS PRVL PRVL PRVL PRVL PRVL PRVL PRVL PRVL PRVL PRVL PRVL PRVL PRVL
VIS 10 >6 >6 >6 >6 >6 >6 >6 >6 >6 >6 >6 >6 >6
CIG -- -- -- -- -- -- -- -- -- -- -- -- -- --
Cover FEW SCT SCT SCT SCT SCT SCT SCT SCT SCT SCT SCT SCT SCT
FltCat VFR VFR VFR VFR VFR VFR VFR VFR VFR VFR VFR VFR VFR VFR
WX -- -- -- -- -- -- -- -- -- -- -- -- -- --
WDir 170 190 190 190 190 190 190 190 190 230 230 230 230 230
WSpd 7 7 7 7 7 7 7 7 7 6 6 6 6 6
WGst -- -- -- -- -- -- -- -- -- -- -- -- -- --

Raw TAF
KDEN 170301Z 1703/1806 13008KT P6SM SCT120 BKN160
  FM170500 19007KT P6SM SCT180
  FM171400 23006KT P6SM SCT150
  FM172200 13010KT P6SM SCT100 SCT200
  PROB30 1722/1802 VRB20G30KT -TSRA SCT080CB BKN140


Raw METAR
KDEN 170453Z 17007KT 10SM FEW150 19/10 A3024 RMK AO2 SLP163 T01890100
KDEN 170353Z 16010KT 10SM FEW150 21/11 A3023 RMK AO2 SLP163 T02060106
KDEN 170253Z 15008KT 10SM SCT120 BKN150 23/11 A3022 RMK AO2 SLP160 T02280111 53008

METAR Board
Radar Display
Forecast Discussion

FOR SITUATIONAL AWARENESS. NOT TO BE USED FOR FLIGHT PLANNING PURPOSES.